sensor_id;sensor_type;location;lat;lon;timestamp;P1;P4;P2;P0;N10;N4;N25;N1;N05;TS
71550;SPS30;59367;48.414;9.872;2023-05-10T00:00:15;1.808231592;;1.808231592;;;;;;;
71550;SPS30;59367;48.414;9.872;2023-05-10T00:01:22;1.926116705;;1.926116705;;;;;;;
71550;SPS30;59367;48.414;9.872;2023-05-10T00:02:29;1.739843845;;1.739843845;;;;;;;
71550;SPS30;59367;48.414;9.872;2023-05-10T00:03:36;2.026106834;;2.026106834;;;;;;;
71550;SPS30;59367;48.414;9.872;2023-05-10T00:04:44;2.104904652;;2.104904652;;;;;;;
71550;SPS30;59367;48.414;9.872;2023-05-10T00:05:51;1.73552537;;1.73552537;;;;;;;
71550;SPS30;59367;48.414;9.872;2023-05-10T00:06:58;1.816074014;;1.816074014;;;;;;;
71550;SPS30;59367;48.414;9.872;2023-05-10T00:08:05;1.753832936;;1.753832936;;;;;;;
71550;SPS30;59367;48.414;9.872;2023-05-10T00:09:13;1.77424562;;1.77424562;;;;;;;
71550;SPS30;59367;48.414;9.872;2023-05-10T00:10:20;1.711683989;;1.711683989;;;;;;;
71550;SPS30;59367;48.414;9.872;2023-05-10T00:11:27;1.787048936;;1.787048936;;;;;;;
71550;SPS30;59367;48.414;9.872;2023-05-10T00:12:34;2.050059795;;2.050059795;;;;;;;
71550;SPS30;59367;48.414;9.872;2023-05-10T00:13:42;2.182219267;;2.182219267;;;;;;;
71550;SPS30;59367;48.414;9.872;2023-05-10T00:14:49;1.781876087;;1.781876087;;;;;;;
71550;SPS30;59367;48.414;9.872;2023-05-10T00:15:56;2.043167353;;2.043167353;;;;;;;
71550;SPS30;59367;48.414;9.872;2023-05-10T00:17:03;2.04080534;;2.04080534;;;;;;;
71550;SPS30;59367;48.414;9.872;2023-05-10T00:18:10;2.067822933;;2.067822933;;;;;;;
71550;SPS30;59367;48.414;9.872;2023-05-10T00:19:17;1.761462569;;1.761462569;;;;;;;
71550;SPS30;59367;48.414;9.872;2023-05-10T00:20:24;1.821291924;;1.821291924;;;;;;;
71550;SPS30;59367;48.414;9.872;2023-05-10T00:21:32;2.339129925;;2.339129925;;;;;;;
71550;SPS30;59367;48.414;9.872;2023-05-10T00:22:39;2.507416725;;2.507416725;;;;;;;
71550;SPS30;59367;48.414;9.872;2023-05-10T00:23:46;2.143932104;;2.143932104;;;;;;;
71550;SPS30;59367;48.414;9.872;2023-05-10T00:24:53;2.418251514;;2.418251514;;;;;;;
71550;SPS30;59367;48.414;9.872;2023-05-10T00:26:00;1.961639524;;1.961639524;;;;;;;
71550;SPS30;59367;48.414;9.872;2023-05-10T00:27:07;2.281408072;;2.281408072;;;;;;;
71550;SPS30;59367;48.414;9.872;2023-05-10T00:28:14;2.449396133;;2.449396133;;;;;;;
71550;SPS30;59367;48.414;9.872;2023-05-10T00:29:21;2.620459557;;2.620459557;;;;;;;
71550;SPS30;59367;48.414;9.872;2023-05-10T00:30:28;2.413403273;;2.413403273;;;;;;;
71550;SPS30;59367;48.414;9.872;2023-05-10T00:31:36;2.474096298;;2.474096298;;;;;;;
71550;SPS30;59367;48.414;9.872;2023-05-10T00:32:43;2.633283138;;2.633283138;;;;;;;
71550;SPS30;59367;48.414;9.872;2023-05-10T00:33:50;2.585787296;;2.585787296;;;;;;;
71550;SPS30;59367;48.414;9.872;2023-05-10T00:34:57;2.346303701;;2.346303701;;;;;;;
71550;SPS30;59367;48.414;9.872;2023-05-10T00:36:05;2.112735748;;2.112735748;;;;;;;
71550;SPS30;59367;48.414;9.872;2023-05-10T00:37:12;2.415902376;;2.415902376;;;;;;;
71550;SPS30;59367;48.414;9.872;2023-05-10T00:38:19;2.642228603;;2.642228603;;;;;;;
71550;SPS30;59367;48.414;9.872;2023-05-10T00:39:26;2.428396702;;2.428396702;;;;;;;
71550;SPS30;59367;48.414;9.872;2023-05-10T00:40:35;3.14093852;;3.14093852;;;;;;;
71550;SPS30;59367;48.414;9.872;2023-05-10T00:41:42;2.658239603;;2.658239603;;;;;;;
71550;SPS30;59367;48.414;9.872;2023-05-10T00:42:49;2.488029957;;2.488029957;;;;;;;
71550;SPS30;59367;48.414;9.872;2023-05-10T00:43:56;2.807016611;;2.807016611;;;;;;;
71550;SPS30;59367;48.414;9.872;2023-05-10T00:45:03;2.531815529;;2.531815529;;;;;;;
71550;SPS30;59367;48.414;9.872;2023-05-10T00:46:11;2.544013739;;2.544013739;;;;;;;
71550;SPS30;59367;48.414;9.872;2023-05-10T00:47:19;2.201107979;;2.201107979;;;;;;;
71550;SPS30;59367;48.414;9.872;2023-05-10T00:48:26;2.172864199;;2.172864199;;;;;;;
71550;SPS30;59367;48.414;9.872;2023-05-10T00:49:35;2.237560511;;2.237560511;;;;;;;
71550;SPS30;59367;48.414;9.872;2023-05-10T00:50:43;2.530677557;;2.530677557;;;;;;;
71550;SPS30;59367;48.414;9.872;2023-05-10T00:51:50;1.651142955;;1.651142955;;;;;;;
71550;SPS30;59367;48.414;9.872;2023-05-10T00:52:58;2.633345127;;2.633345127;;;;;;;
71550;SPS30;59367;48.414;9.872;2023-05-10T00:54:06;1.745945692;;1.745945692;;;;;;;
71550;SPS30;59367;48.414;9.872;2023-05-10T00:55:14;2.493396044;;2.493396044;;;;;;;
71550;SPS30;59367;48.414;9.872;2023-05-10T00:56:21;2.614850283;;2.614850283;;;;;;;
71550;SPS30;59367;48.414;9.872;2023-05-10T00:57:30;2.11759758;;2.11759758;;;;;;;
71550;SPS30;59367;48.414;9.872;2023-05-10T00:58:37;2.323080778;;2.323080778;;;;;;;
71550;SPS30;59367;48.414;9.872;2023-05-10T00:59:45;1.934599042;;1.934599042;;;;;;;
71550;SPS30;59367;48.414;9.872;2023-05-10T01:00:52;2.143800497;;2.143800497;;;;;;;
71550;SPS30;59367;48.414;9.872;2023-05-10T01:02:01;1.980034351;;1.980034351;;;;;;;
71550;SPS30;59367;48.414;9.872;2023-05-10T01:03:09;1.84612298;;1.84612298;;;;;;;
71550;SPS30;59367;48.414;9.872;2023-05-10T01:04:16;2.147437811;;2.147437811;;;;;;;
71550;SPS30;59367;48.414;9.872;2023-05-10T01:05:24;2.020293236;;2.020293236;;;;;;;
71550;SPS30;59367;48.414;9.872;2023-05-10T01:06:31;1.909126997;;1.909126997;;;;;;;
71550;SPS30;59367;48.414;9.872;2023-05-10T01:07:38;2.012733936;;2.012733936;;;;;;;
71550;SPS30;59367;48.414;9.872;2023-05-10T01:08:46;2.093118429;;2.093118429;;;;;;;
71550;SPS30;59367;48.414;9.872;2023-05-10T01:09:53;1.893292069;;1.893292069;;;;;;;
71550;SPS30;59367;48.414;9.872;2023-05-10T01:11:01;2.277187347;;2.277187347;;;;;;;
71550;SPS30;59367;48.414;9.872;2023-05-10T01:12:08;2.092178345;;2.092178345;;;;;;;
71550;SPS30;59367;48.414;9.872;2023-05-10T01:13:15;1.886116862;;1.886116862;;;;;;;
71550;SPS30;59367;48.414;9.872;2023-05-10T01:14:29;2.248705149;;2.248705149;;;;;;;
71550;SPS30;59367;48.414;9.872;2023-05-10T01:15:37;2.200817585;;2.200817585;;;;;;;
71550;SPS30;59367;48.414;9.872;2023-05-10T01:16:45;2.066619635;;2.066619635;;;;;;;
71550;SPS30;59367;48.414;9.872;2023-05-10T01:17:53;1.846830368;;1.846830368;;;;;;;
71550;SPS30;59367;48.414;9.872;2023-05-10T01:19:00;2.01477766;;2.01477766;;;;;;;
71550;SPS30;59367;48.414;9.872;2023-05-10T01:20:10;2.518978596;;2.518978596;;;;;;;
71550;SPS30;59367;48.414;9.872;2023-05-10T01:21:21;2.241680861;;2.241680861;;;;;;;
71550;SPS30;59367;48.414;9.872;2023-05-10T01:22:39;1.810457349;;1.810457349;;;;;;;
71550;SPS30;59367;48.414;9.872;2023-05-10T01:24:22;1.939393044;;1.939393044;;;;;;;
71550;SPS30;59367;48.414;9.872;2023-05-10T01:26:03;2.123776674;;2.123776674;;;;;;;
71550;SPS30;59367;48.414;9.872;2023-05-10T01:27:35;2.160582304;;2.160582304;;;;;;;
71550;SPS30;59367;48.414;9.872;2023-05-10T01:29:21;2.086393356;;2.086393356;;;;;;;
71550;SPS30;59367;48.414;9.872;2023-05-10T01:30:50;2.128957748;;2.128957748;;;;;;;
71550;SPS30;59367;48.414;9.872;2023-05-10T01:32:28;2.246310234;;2.246310234;;;;;;;
71550;SPS30;59367;48.414;9.872;2023-05-10T01:33:42;2.268346071;;2.268346071;;;;;;;
71550;SPS30;59367;48.414;9.872;2023-05-10T01:34:54;2.570405006;;2.570405006;;;;;;;
71550;SPS30;59367;48.414;9.872;2023-05-10T01:36:11;3.213614464;;3.213614464;;;;;;;
71550;SPS30;59367;48.414;9.872;2023-05-10T01:37:25;2.637511253;;2.637511253;;;;;;;
71550;SPS30;59367;48.414;9.872;2023-05-10T01:38:41;2.843640804;;2.843640804;;;;;;;
71550;SPS30;59367;48.414;9.872;2023-05-10T01:39:54;2.805850744;;2.805850744;;;;;;;
71550;SPS30;59367;48.414;9.872;2023-05-10T01:41:08;2.857266188;;2.857266188;;;;;;;
71550;SPS30;59367;48.414;9.872;2023-05-10T01:42:23;1.971699119;;1.971699119;;;;;;;
71550;SPS30;59367;48.414;9.872;2023-05-10T01:43:36;2.221271992;;2.221271992;;;;;;;
71550;SPS30;59367;48.414;9.872;2023-05-10T01:44:53;2.149572134;;2.149572134;;;;;;;
71550;SPS30;59367;48.414;9.872;2023-05-10T01:46:10;2.26597929;;2.26597929;;;;;;;
71550;SPS30;59367;48.414;9.872;2023-05-10T01:47:23;1.836804271;;1.836804271;;;;;;;
71550;SPS30;59367;48.414;9.872;2023-05-10T01:48:41;2.253501892;;2.253501892;;;;;;;
71550;SPS30;59367;48.414;9.872;2023-05-10T01:49:53;1.906620622;;1.906620622;;;;;;;
71550;SPS30;59367;48.414;9.872;2023-05-10T01:51:04;1.513601542;;1.513601542;;;;;;;
71550;SPS30;59367;48.414;9.872;2023-05-10T01:52:12;1.724524856;;1.724524856;;;;;;;
71550;SPS30;59367;48.414;9.872;2023-05-10T01:53:22;1.600551248;;1.600551248;;;;;;;
71550;SPS30;59367;48.414;9.872;2023-05-10T01:54:30;1.686151147;;1.686151147;;;;;;;
71550;SPS30;59367;48.414;9.872;2023-05-10T01:55:43;1.469704866;;1.469704866;;;;;;;
71550;SPS30;59367;48.414;9.872;2023-05-10T01:56:55;1.271260738;;1.271260738;;;;;;;
71550;SPS30;59367;48.414;9.872;2023-05-10T01:58:06;1.636033297;;1.636033297;;;;;;;
71550;SPS30;59367;48.414;9.872;2023-05-10T01:59:18;1.720331788;;1.720331788;;;;;;;
71550;SPS30;59367;48.414;9.872;2023-05-10T02:00:31;1.543227196;;1.543227196;;;;;;;
71550;SPS30;59367;48.414;9.872;2023-05-10T02:01:40;1.633416891;;1.633416891;;;;;;;
71550;SPS30;59367;48.414;9.872;2023-05-10T02:02:48;1.851970911;;1.851970911;;;;;;;
71550;SPS30;59367;48.414;9.872;2023-05-10T02:03:57;1.42086935;;1.42086935;;;;;;;
71550;SPS30;59367;48.414;9.872;2023-05-10T02:05:05;1.498031259;;1.498031259;;;;;;;
71550;SPS30;59367;48.414;9.872;2023-05-10T02:06:16;1.428653002;;1.428653002;;;;;;;
71550;SPS30;59367;48.414;9.872;2023-05-10T02:07:25;1.15169096;;1.15169096;;;;;;;
71550;SPS30;59367;48.414;9.872;2023-05-10T02:08:35;0.861069918;;0.861069918;;;;;;;
71550;SPS30;59367;48.414;9.872;2023-05-10T02:09:44;1.162238002;;1.162238002;;;;;;;
71550;SPS30;59367;48.414;9.872;2023-05-10T02:10:52;0.822341621;;0.822341621;;;;;;;
71550;SPS30;59367;48.414;9.872;2023-05-10T02:12:02;0.987703323;;0.987703323;;;;;;;
71550;SPS30;59367;48.414;9.872;2023-05-10T02:13:11;0.879250586;;0.879250586;;;;;;;
71550;SPS30;59367;48.414;9.872;2023-05-10T02:14:20;0.789387703;;0.789387703;;;;;;;
71550;SPS30;59367;48.414;9.872;2023-05-10T02:15:29;0.722890615;;0.722890615;;;;;;;
71550;SPS30;59367;48.414;9.872;2023-05-10T02:16:37;0.683621168;;0.683621168;;;;;;;
71550;SPS30;59367;48.414;9.872;2023-05-10T02:17:46;0.743747532;;0.743747532;;;;;;;
71550;SPS30;59367;48.414;9.872;2023-05-10T02:18:54;0.775949597;;0.775949597;;;;;;;
71550;SPS30;59367;48.414;9.872;2023-05-10T02:20:05;0.546780229;;0.546780229;;;;;;;
71550;SPS30;59367;48.414;9.872;2023-05-10T02:21:14;0.721980929;;0.721980929;;;;;;;
71550;SPS30;59367;48.414;9.872;2023-05-10T02:22:22;0.506163836;;0.506163836;;;;;;;
71550;SPS30;59367;48.414;9.872;2023-05-10T02:23:30;0.514116287;;0.514116287;;;;;;;
71550;SPS30;59367;48.414;9.872;2023-05-10T02:24:39;0.4935444;;0.4935444;;;;;;;
71550;SPS30;59367;48.414;9.872;2023-05-10T02:25:46;0.388876528;;0.388876528;;;;;;;
71550;SPS30;59367;48.414;9.872;2023-05-10T02:26:56;0.421359032;;0.421359032;;;;;;;
71550;SPS30;59367;48.414;9.872;2023-05-10T02:28:05;0.348552287;;0.348552287;;;;;;;
71550;SPS30;59367;48.414;9.872;2023-05-10T02:29:14;0.483084917;;0.483084917;;;;;;;
71550;SPS30;59367;48.414;9.872;2023-05-10T02:30:23;0.294248551;;0.294248551;;;;;;;
71550;SPS30;59367;48.414;9.872;2023-05-10T02:31:31;0.313066036;;0.313066036;;;;;;;
71550;SPS30;59367;48.414;9.872;2023-05-10T02:32:39;0.258476555;;0.258476555;;;;;;;
71550;SPS30;59367;48.414;9.872;2023-05-10T02:33:47;0.371871382;;0.371871382;;;;;;;
71550;SPS30;59367;48.414;9.872;2023-05-10T02:34:55;0.204737335;;0.204737335;;;;;;;
71550;SPS30;59367;48.414;9.872;2023-05-10T02:36:05;0.330135614;;0.330135614;;;;;;;
71550;SPS30;59367;48.414;9.872;2023-05-10T02:37:14;0.116758287;;0.116758287;;;;;;;
71550;SPS30;59367;48.414;9.872;2023-05-10T02:38:23;0.307698041;;0.307698041;;;;;;;
71550;SPS30;59367;48.414;9.872;2023-05-10T02:39:31;0.138938501;;0.138938501;;;;;;;
71550;SPS30;59367;48.414;9.872;2023-05-10T02:40:39;0.322333604;;0.322333604;;;;;;;
71550;SPS30;59367;48.414;9.872;2023-05-10T02:41:48;0.181009889;;0.181009889;;;;;;;
71550;SPS30;59367;48.414;9.872;2023-05-10T02:42:56;0.189986423;;0.189986423;;;;;;;
71550;SPS30;59367;48.414;9.872;2023-05-10T02:44:06;0.215288132;;0.215288132;;;;;;;
71550;SPS30;59367;48.414;9.872;2023-05-10T02:45:15;0.255097806;;0.255097806;;;;;;;
71550;SPS30;59367;48.414;9.872;2023-05-10T02:46:25;0.198913991;;0.198913991;;;;;;;
71550;SPS30;59367;48.414;9.872;2023-05-10T02:47:32;0.252172321;;0.252172321;;;;;;;
71550;SPS30;59367;48.414;9.872;2023-05-10T02:48:40;0.136708215;;0.136708215;;;;;;;
71550;SPS30;59367;48.414;9.872;2023-05-10T02:49:47;0.133877337;;0.133877337;;;;;;;
71550;SPS30;59367;48.414;9.872;2023-05-10T02:50:55;0.157147944;;0.157147944;;;;;;;
71550;SPS30;59367;48.414;9.872;2023-05-10T02:52:06;0.188583598;;0.188583598;;;;;;;
71550;SPS30;59367;48.414;9.872;2023-05-10T02:53:18;0.187619761;;0.187619761;;;;;;;
71550;SPS30;59367;48.414;9.872;2023-05-10T02:54:28;0.217169419;;0.217169419;;;;;;;
71550;SPS30;59367;48.414;9.872;2023-05-10T02:55:38;0.205779806;;0.205779806;;;;;;;
71550;SPS30;59367;48.414;9.872;2023-05-10T02:56:50;0.352137893;;0.352137893;;;;;;;
71550;SPS30;59367;48.414;9.872;2023-05-10T02:58:00;0.053503916;;0.053503916;;;;;;;
71550;SPS30;59367;48.414;9.872;2023-05-10T02:59:08;0.349469572;;0.349469572;;;;;;;
71550;SPS30;59367;48.414;9.872;2023-05-10T03:00:15;0.213468656;;0.213468656;;;;;;;
71550;SPS30;59367;48.414;9.872;2023-05-10T03:01:22;0.16406697;;0.16406697;;;;;;;
71550;SPS30;59367;48.414;9.872;2023-05-10T03:02:29;0.332206279;;0.332206279;;;;;;;
71550;SPS30;59367;48.414;9.872;2023-05-10T03:03:37;0.16884245;;0.16884245;;;;;;;
71550;SPS30;59367;48.414;9.872;2023-05-10T03:04:44;0.447044075;;0.447044075;;;;;;;
71550;SPS30;59367;48.414;9.872;2023-05-10T03:05:51;0.552980781;;0.552980781;;;;;;;
71550;SPS30;59367;48.414;9.872;2023-05-10T03:06:58;0.216056049;;0.216056049;;;;;;;
71550;SPS30;59367;48.414;9.872;2023-05-10T03:08:05;0.194886431;;0.194886431;;;;;;;
71550;SPS30;59367;48.414;9.872;2023-05-10T03:09:13;0.184335858;;0.184335858;;;;;;;
71550;SPS30;59367;48.414;9.872;2023-05-10T03:10:21;0.294207662;;0.285927117;;;;;;;
71550;SPS30;59367;48.414;9.872;2023-05-10T03:11:32;0.256648481;;0.248720869;;;;;;;
71550;SPS30;59367;48.414;9.872;2023-05-10T03:12:57;0.219171807;;0.215264812;;;;;;;
71550;SPS30;59367;48.414;9.872;2023-05-10T03:14:20;0.221238151;;0.214845523;;;;;;;
71550;SPS30;59367;48.414;9.872;2023-05-10T03:15:37;0.215758577;;0.215758577;;;;;;;
71550;SPS30;59367;48.414;9.872;2023-05-10T03:16:47;0.244641855;;0.244641855;;;;;;;
71550;SPS30;59367;48.414;9.872;2023-05-10T03:18:01;0.317327023;;0.317327023;;;;;;;
71550;SPS30;59367;48.414;9.872;2023-05-10T03:19:14;0.214514315;;0.214514315;;;;;;;
71550;SPS30;59367;48.414;9.872;2023-05-10T03:20:29;0.214694947;;0.214694947;;;;;;;
71550;SPS30;59367;48.414;9.872;2023-05-10T03:21:39;0.200894073;;0.200894073;;;;;;;
71550;SPS30;59367;48.414;9.872;2023-05-10T03:22:51;0.46622476;;0.46622476;;;;;;;
71550;SPS30;59367;48.414;9.872;2023-05-10T03:24:05;0.374384969;;0.374384969;;;;;;;
71550;SPS30;59367;48.414;9.872;2023-05-10T03:25:15;0.426031381;;0.426031381;;;;;;;
71550;SPS30;59367;48.414;9.872;2023-05-10T03:26:24;0.254064113;;0.254064113;;;;;;;
71550;SPS30;59367;48.414;9.872;2023-05-10T03:27:33;0.337537885;;0.337537885;;;;;;;
71550;SPS30;59367;48.414;9.872;2023-05-10T03:28:42;0.327604443;;0.327604443;;;;;;;
71550;SPS30;59367;48.414;9.872;2023-05-10T03:29:51;0.242705449;;0.242705449;;;;;;;
71550;SPS30;59367;48.414;9.872;2023-05-10T03:31:00;0.434036165;;0.434036165;;;;;;;
71550;SPS30;59367;48.414;9.872;2023-05-10T03:32:07;0.334530622;;0.334530622;;;;;;;
71550;SPS30;59367;48.414;9.872;2023-05-10T03:33:15;0.256565154;;0.256565154;;;;;;;
71550;SPS30;59367;48.414;9.872;2023-05-10T03:34:26;0.323016673;;0.323016673;;;;;;;
71550;SPS30;59367;48.414;9.872;2023-05-10T03:35:34;0.178493217;;0.178493217;;;;;;;
71550;SPS30;59367;48.414;9.872;2023-05-10T03:36:41;0.285252213;;0.285252213;;;;;;;
71550;SPS30;59367;48.414;9.872;2023-05-10T03:37:48;0.448769957;;0.448769957;;;;;;;
71550;SPS30;59367;48.414;9.872;2023-05-10T03:38:55;0.590627611;;0.590627611;;;;;;;
71550;SPS30;59367;48.414;9.872;2023-05-10T03:40:02;0.555794835;;0.555794835;;;;;;;
71550;SPS30;59367;48.414;9.872;2023-05-10T03:41:10;0.240629643;;0.240629643;;;;;;;
71550;SPS30;59367;48.414;9.872;2023-05-10T03:42:18;0.286547899;;0.286547899;;;;;;;
71550;SPS30;59367;48.414;9.872;2023-05-10T03:43:25;0.294529855;;0.294529855;;;;;;;
71550;SPS30;59367;48.414;9.872;2023-05-10T03:44:32;0.566553235;;0.541142404;;;;;;;
71550;SPS30;59367;48.414;9.872;2023-05-10T03:45:39;0.394075572;;0.372826725;;;;;;;
71550;SPS30;59367;48.414;9.872;2023-05-10T03:46:46;0.487476945;;0.461263567;;;;;;;
71550;SPS30;59367;48.414;9.872;2023-05-10T03:47:53;0.505335987;;0.475729465;;;;;;;
71550;SPS30;59367;48.414;9.872;2023-05-10T03:49:00;0.488092095;;0.45919463;;;;;;;
71550;SPS30;59367;48.414;9.872;2023-05-10T03:50:08;0.413368255;;0.413368255;;;;;;;
71550;SPS30;59367;48.414;9.872;2023-05-10T03:51:15;0.499656647;;0.499656647;;;;;;;
71550;SPS30;59367;48.414;9.872;2023-05-10T03:52:22;0.329854906;;0.329854906;;;;;;;
71550;SPS30;59367;48.414;9.872;2023-05-10T03:53:30;0.361816853;;0.361816853;;;;;;;
71550;SPS30;59367;48.414;9.872;2023-05-10T03:54:37;0.783534527;;0.783534527;;;;;;;
71550;SPS30;59367;48.414;9.872;2023-05-10T03:55:44;0.591643274;;0.591643274;;;;;;;
71550;SPS30;59367;48.414;9.872;2023-05-10T03:56:51;0.48434943;;0.48434943;;;;;;;
71550;SPS30;59367;48.414;9.872;2023-05-10T03:57:58;0.545695305;;0.545695305;;;;;;;
71550;SPS30;59367;48.414;9.872;2023-05-10T03:59:05;0.601105869;;0.601105869;;;;;;;
71550;SPS30;59367;48.414;9.872;2023-05-10T04:00:13;0.461668432;;0.461668432;;;;;;;
71550;SPS30;59367;48.414;9.872;2023-05-10T04:01:20;0.529933095;;0.529933095;;;;;;;
71550;SPS30;59367;48.414;9.872;2023-05-10T04:02:27;0.574021339;;0.574021339;;;;;;;
71550;SPS30;59367;48.414;9.872;2023-05-10T04:03:34;0.524933815;;0.524933815;;;;;;;
71550;SPS30;59367;48.414;9.872;2023-05-10T04:04:41;0.529422641;;0.529422641;;;;;;;
71550;SPS30;59367;48.414;9.872;2023-05-10T04:05:48;0.787166119;;0.787166119;;;;;;;
71550;SPS30;59367;48.414;9.872;2023-05-10T04:07:01;0.644433558;;0.644433558;;;;;;;
71550;SPS30;59367;48.414;9.872;2023-05-10T04:08:08;0.682667255;;0.682667255;;;;;;;
71550;SPS30;59367;48.414;9.872;2023-05-10T04:09:15;0.576540232;;0.576540232;;;;;;;
71550;SPS30;59367;48.414;9.872;2023-05-10T04:10:22;0.61491406;;0.61491406;;;;;;;
71550;SPS30;59367;48.414;9.872;2023-05-10T04:11:30;0.639790535;;0.639790535;;;;;;;
71550;SPS30;59367;48.414;9.872;2023-05-10T04:12:37;0.691937745;;0.691937745;;;;;;;
71550;SPS30;59367;48.414;9.872;2023-05-10T04:13:44;0.92597419;;0.92597419;;;;;;;
71550;SPS30;59367;48.414;9.872;2023-05-10T04:14:51;0.787676215;;0.787676215;;;;;;;
71550;SPS30;59367;48.414;9.872;2023-05-10T04:15:58;1.001371622;;1.001371622;;;;;;;
71550;SPS30;59367;48.414;9.872;2023-05-10T04:17:05;0.773565173;;0.773565173;;;;;;;
71550;SPS30;59367;48.414;9.872;2023-05-10T04:18:13;0.659644902;;0.659644902;;;;;;;
71550;SPS30;59367;48.414;9.872;2023-05-10T04:19:20;0.892350376;;0.892350376;;;;;;;
71550;SPS30;59367;48.414;9.872;2023-05-10T04:20:27;0.67661202;;0.67661202;;;;;;;
71550;SPS30;59367;48.414;9.872;2023-05-10T04:21:35;0.448066145;;0.448066145;;;;;;;
71550;SPS30;59367;48.414;9.872;2023-05-10T04:22:43;0.722593367;;0.722593367;;;;;;;
71550;SPS30;59367;48.414;9.872;2023-05-10T04:23:50;1.008386254;;1.008386254;;;;;;;
71550;SPS30;59367;48.414;9.872;2023-05-10T04:24:57;0.822250724;;0.822250724;;;;;;;
71550;SPS30;59367;48.414;9.872;2023-05-10T04:26:04;1.046444654;;1.046444654;;;;;;;
71550;SPS30;59367;48.414;9.872;2023-05-10T04:27:11;0.760085106;;0.760085106;;;;;;;
71550;SPS30;59367;48.414;9.872;2023-05-10T04:28:18;0.849640071;;0.849640071;;;;;;;
71550;SPS30;59367;48.414;9.872;2023-05-10T04:29:25;0.681633234;;0.681633234;;;;;;;
71550;SPS30;59367;48.414;9.872;2023-05-10T04:30:32;0.82203573;;0.82203573;;;;;;;
71550;SPS30;59367;48.414;9.872;2023-05-10T04:31:39;0.800357819;;0.800357819;;;;;;;
71550;SPS30;59367;48.414;9.872;2023-05-10T04:32:46;0.65589726;;0.65589726;;;;;;;
71550;SPS30;59367;48.414;9.872;2023-05-10T04:33:53;0.631532013;;0.631532013;;;;;;;
71550;SPS30;59367;48.414;9.872;2023-05-10T04:35:00;0.685970187;;0.685970187;;;;;;;
71550;SPS30;59367;48.414;9.872;2023-05-10T04:36:08;0.799051583;;0.799051583;;;;;;;
71550;SPS30;59367;48.414;9.872;2023-05-10T04:37:15;0.698018968;;0.698018968;;;;;;;
71550;SPS30;59367;48.414;9.872;2023-05-10T04:38:22;0.700678647;;0.700678647;;;;;;;
71550;SPS30;59367;48.414;9.872;2023-05-10T04:39:29;0.79465884;;0.79465884;;;;;;;
71550;SPS30;59367;48.414;9.872;2023-05-10T04:40:36;0.632689178;;0.632689178;;;;;;;
71550;SPS30;59367;48.414;9.872;2023-05-10T04:41:44;0.7576316;;0.7576316;;;;;;;
71550;SPS30;59367;48.414;9.872;2023-05-10T04:42:51;0.916156113;;0.916156113;;;;;;;
71550;SPS30;59367;48.414;9.872;2023-05-10T04:43:58;0.568398654;;0.568398654;;;;;;;
71550;SPS30;59367;48.414;9.872;2023-05-10T04:45:05;0.67781204;;0.67781204;;;;;;;
71550;SPS30;59367;48.414;9.872;2023-05-10T04:46:13;0.696025908;;0.696025908;;;;;;;
71550;SPS30;59367;48.414;9.872;2023-05-10T04:47:20;1.077295065;;1.077295065;;;;;;;
71550;SPS30;59367;48.414;9.872;2023-05-10T04:48:27;1.282285333;;1.282285333;;;;;;;
71550;SPS30;59367;48.414;9.872;2023-05-10T04:49:34;0.891021013;;0.891021013;;;;;;;
71550;SPS30;59367;48.414;9.872;2023-05-10T04:50:42;0.802574694;;0.802574694;;;;;;;
71550;SPS30;59367;48.414;9.872;2023-05-10T04:51:49;0.923431695;;0.923431695;;;;;;;
71550;SPS30;59367;48.414;9.872;2023-05-10T04:52:56;1.031699419;;1.031699419;;;;;;;
71550;SPS30;59367;48.414;9.872;2023-05-10T04:54:03;1.346000314;;1.346000314;;;;;;;
71550;SPS30;59367;48.414;9.872;2023-05-10T04:55:10;1.044072151;;1.044072151;;;;;;;
71550;SPS30;59367;48.414;9.872;2023-05-10T04:56:18;1.12986517;;1.12986517;;;;;;;
71550;SPS30;59367;48.414;9.872;2023-05-10T04:57:25;1.318992496;;1.318992496;;;;;;;
71550;SPS30;59367;48.414;9.872;2023-05-10T04:58:32;1.108878493;;1.108878493;;;;;;;
71550;SPS30;59367;48.414;9.872;2023-05-10T04:59:39;0.822794139;;0.822794139;;;;;;;
71550;SPS30;59367;48.414;9.872;2023-05-10T05:00:46;1.357797742;;1.357797742;;;;;;;
71550;SPS30;59367;48.414;9.872;2023-05-10T05:01:53;1.245883346;;1.245883346;;;;;;;
71550;SPS30;59367;48.414;9.872;2023-05-10T05:03:00;1.235316992;;1.235316992;;;;;;;
71550;SPS30;59367;48.414;9.872;2023-05-10T05:04:07;1.381761909;;1.381761909;;;;;;;
71550;SPS30;59367;48.414;9.872;2023-05-10T05:05:14;1.22446835;;1.22446835;;;;;;;
71550;SPS30;59367;48.414;9.872;2023-05-10T05:06:21;1.072122931;;1.072122931;;;;;;;
71550;SPS30;59367;48.414;9.872;2023-05-10T05:07:28;1.202118158;;1.202118158;;;;;;;
71550;SPS30;59367;48.414;9.872;2023-05-10T05:08:35;1.463572741;;1.463572741;;;;;;;
71550;SPS30;59367;48.414;9.872;2023-05-10T05:09:42;1.389498353;;1.389498353;;;;;;;
71550;SPS30;59367;48.414;9.872;2023-05-10T05:10:51;1.794452429;;1.794452429;;;;;;;
71550;SPS30;59367;48.414;9.872;2023-05-10T05:12:03;1.928924322;;1.928924322;;;;;;;
71550;SPS30;59367;48.414;9.872;2023-05-10T05:13:15;1.606831074;;1.606831074;;;;;;;
71550;SPS30;59367;48.414;9.872;2023-05-10T05:14:23;1.528727055;;1.528727055;;;;;;;
71550;SPS30;59367;48.414;9.872;2023-05-10T05:15:33;1.433140159;;1.433140159;;;;;;;
71550;SPS30;59367;48.414;9.872;2023-05-10T05:16:40;1.11152482;;1.11152482;;;;;;;
71550;SPS30;59367;48.414;9.872;2023-05-10T05:17:47;1.082388282;;1.082388282;;;;;;;
71550;SPS30;59367;48.414;9.872;2023-05-10T05:18:56;0.931834638;;0.931834638;;;;;;;
71550;SPS30;59367;48.414;9.872;2023-05-10T05:20:04;0.923146546;;0.923146546;;;;;;;
71550;SPS30;59367;48.414;9.872;2023-05-10T05:21:18;1.006143808;;1.006143808;;;;;;;
71550;SPS30;59367;48.414;9.872;2023-05-10T05:22:25;0.764224529;;0.764224529;;;;;;;
71550;SPS30;59367;48.414;9.872;2023-05-10T05:23:37;0.901138008;;0.901138008;;;;;;;
71550;SPS30;59367;48.414;9.872;2023-05-10T05:24:45;0.999642789;;0.999642789;;;;;;;
71550;SPS30;59367;48.414;9.872;2023-05-10T05:25:52;0.564391613;;0.564391613;;;;;;;
71550;SPS30;59367;48.414;9.872;2023-05-10T05:27:08;0.678478241;;0.678478241;;;;;;;
71550;SPS30;59367;48.414;9.872;2023-05-10T05:28:15;1.187922716;;1.187922716;;;;;;;
71550;SPS30;59367;48.414;9.872;2023-05-10T05:29:22;1.11692059;;1.11692059;;;;;;;
71550;SPS30;59367;48.414;9.872;2023-05-10T05:30:29;1.047750115;;1.047750115;;;;;;;
71550;SPS30;59367;48.414;9.872;2023-05-10T05:31:36;1.038337111;;1.038337111;;;;;;;